Skip to main content

CRUISE INFORMATION RECORD AND DATA
 
NODC Cruise 31-25270 Information
WOD CRUISE REFERENCE # 31025270
DATA:
in WOD format 31025270_XBT.dat
31025270_CTD.dat
in 'csv' format 31025270_XBT.csv
31025270_CTD.csv
METADATA:
COUNTRY UNITED STATES (31)
NODC ACCESSION NUMBER (XBT) 39820
SHIP NAME BARTLETT
INSTITUTE U.S NAVY; NAVAL RESEARCH LABORATORY - STENNIS SPACE CENTER MS (NRL-SSC)
ORIGINATORS CRUISE CODE (XBT) BARTLETT
PRIMARY INVESTIGATORS  
All Parameters TEAGUE; WILLIAM J.
SUBMITTING INSTITUTE QUEBEC DEPARTMENT OF FISHERIES; BIOLOGICAL CENTER (QUEBEC)
SUBMITTING INVESTIGATOR TEAGUE; WILLIAM J.
SUBMISSION DATE 3/21/2008
DATE OF FIRST CAST 5/24/1990
DATE OF LAST CAST 5/25/1990
TOTAL NUMBER OF CASTS 144
Temperature [t] PROFILES 144
Salinity [s] PROFILES 26
UNIQUE CAST # LATITUDE LONGITUDE DATE TIME PROBE TYPE
11327992 15.980 -56.190 5/24/1990 17.610 CTD
11327993 15.990 -56.160 5/24/1990 19.840 CTD
11327994 16.000 -56.200 5/24/1990 20.510 CTD
11327995 16.000 -56.200 5/24/1990 21.140 CTD
11327996 16.000 -56.200 5/24/1990 21.880 CTD
11327997 16.000 -56.210 5/24/1990 22.560 CTD
11327998 16.010 -56.230 5/24/1990 23.180 CTD
11327999 16.030 -56.250 5/24/1990 23.830 CTD
11328000 16.030 -56.250 5/25/1990 0.528 CTD
11328001 16.030 -56.250 5/25/1990 1.127 CTD
11328002 16.050 -56.260 5/25/1990 2.136 CTD
11328003 16.050 -56.250 5/25/1990 2.712 CTD
11328004 16.050 -56.260 5/25/1990 3.336 CTD
11328005 16.050 -56.260 5/25/1990 4.512 CTD
11328006 16.060 -56.260 5/25/1990 5.111 CTD
11328075 16.000 -56.200 5/25/1990 5.780 XBT
11328078 16.000 -56.200 5/25/1990 5.780 XBT
11328082 16.000 -56.200 5/25/1990 5.780 XBT
11328086 16.000 -56.200 5/25/1990 5.780 XBT
11328007 16.060 -56.260 5/25/1990 5.783 CTD
11328076 16.000 -56.200 5/25/1990 5.830 XBT
11328079 16.000 -56.200 5/25/1990 5.830 XBT
11328083 16.000 -56.200 5/25/1990 5.830 XBT
11328087 16.000 -56.200 5/25/1990 5.830 XBT
11328080 16.000 -56.200 5/25/1990 5.900 XBT
11328084 16.000 -56.200 5/25/1990 5.900 XBT
11328088 16.000 -56.200 5/25/1990 5.900 XBT
11328077 16.000 -56.200 5/25/1990 5.950 XBT
11328081 16.000 -56.200 5/25/1990 5.950 XBT
11328085 16.000 -56.200 5/25/1990 5.950 XBT
11328089 16.000 -56.200 5/25/1990 5.950 XBT
11328090 16.000 -56.200 5/25/1990 6.000 XBT
11328104 16.000 -56.200 5/25/1990 6.000 XBT
11328128 16.000 -56.200 5/25/1990 6.000 XBT
11328091 16.000 -56.200 5/25/1990 6.070 XBT
11328105 16.000 -56.200 5/25/1990 6.070 XBT
11328117 16.000 -56.200 5/25/1990 6.070 XBT
11328129 16.000 -56.200 5/25/1990 6.070 XBT
11328092 16.000 -56.200 5/25/1990 6.120 XBT
11328106 16.000 -56.200 5/25/1990 6.120 XBT
11328118 16.000 -56.200 5/25/1990 6.120 XBT
11328130 16.000 -56.200 5/25/1990 6.120 XBT
11328093 16.000 -56.200 5/25/1990 6.190 XBT
11328107 16.000 -56.200 5/25/1990 6.190 XBT
11328119 16.000 -56.200 5/25/1990 6.190 XBT
11328131 16.000 -56.200 5/25/1990 6.190 XBT
11328094 16.000 -56.200 5/25/1990 6.230 XBT
11328108 16.000 -56.200 5/25/1990 6.230 XBT
11328132 16.000 -56.200 5/25/1990 6.230 XBT
11328095 16.000 -56.200 5/25/1990 6.310 XBT
11328120 16.000 -56.200 5/25/1990 6.310 XBT
11328096 16.000 -56.200 5/25/1990 6.380 XBT
11328121 16.000 -56.200 5/25/1990 6.380 XBT
11328133 16.000 -56.200 5/25/1990 6.380 XBT
11328008 16.060 -56.260 5/25/1990 6.384 CTD
11328097 16.000 -56.200 5/25/1990 6.500 XBT
11328109 16.000 -56.200 5/25/1990 6.500 XBT
11328122 16.000 -56.200 5/25/1990 6.500 XBT
11328098 16.000 -56.200 5/25/1990 6.570 XBT
11328110 16.000 -56.200 5/25/1990 6.570 XBT
11328123 16.000 -56.200 5/25/1990 6.570 XBT
11328134 16.000 -56.200 5/25/1990 6.570 XBT
11328099 16.000 -56.200 5/25/1990 6.640 XBT
11328111 16.000 -56.200 5/25/1990 6.640 XBT
11328135 16.000 -56.200 5/25/1990 6.640 XBT
11328100 16.000 -56.200 5/25/1990 6.690 XBT
11328112 16.000 -56.200 5/25/1990 6.690 XBT
11328124 16.000 -56.200 5/25/1990 6.690 XBT
11328136 16.000 -56.200 5/25/1990 6.690 XBT
11328101 16.000 -56.200 5/25/1990 6.760 XBT
11328113 16.000 -56.200 5/25/1990 6.760 XBT
11328125 16.000 -56.200 5/25/1990 6.760 XBT
11328137 16.000 -56.200 5/25/1990 6.760 XBT
11328102 16.000 -56.200 5/25/1990 6.840 XBT
11328114 16.000 -56.200 5/25/1990 6.840 XBT
11328126 16.000 -56.200 5/25/1990 6.840 XBT
11328138 16.000 -56.200 5/25/1990 6.840 XBT
11328103 16.000 -56.200 5/25/1990 6.880 XBT
11328115 16.000 -56.200 5/25/1990 6.880 XBT
11328127 16.000 -56.200 5/25/1990 6.880 XBT
11328139 16.000 -56.200 5/25/1990 6.880 XBT
11328116 16.000 -56.200 5/25/1990 6.950 XBT
11328009 16.060 -56.260 5/25/1990 6.984 CTD
11328140 16.000 -56.200 5/25/1990 7.030 XBT
11328155 16.000 -56.200 5/25/1990 7.030 XBT
11328170 16.000 -56.200 5/25/1990 7.030 XBT
11328141 16.000 -56.200 5/25/1990 7.070 XBT
11328156 16.000 -56.200 5/25/1990 7.070 XBT
11328171 16.000 -56.200 5/25/1990 7.070 XBT
11328142 16.000 -56.200 5/25/1990 7.120 XBT
11328157 16.000 -56.200 5/25/1990 7.120 XBT
11328172 16.000 -56.200 5/25/1990 7.120 XBT
11328143 16.000 -56.200 5/25/1990 7.200 XBT
11328158 16.000 -56.200 5/25/1990 7.200 XBT
11328173 16.000 -56.200 5/25/1990 7.200 XBT
11328144 16.000 -56.200 5/25/1990 7.240 XBT
11328159 16.000 -56.200 5/25/1990 7.240 XBT
11328174 16.000 -56.200 5/25/1990 7.240 XBT
11328145 16.000 -56.200 5/25/1990 7.390 XBT
11328160 16.000 -56.200 5/25/1990 7.390 XBT
11328175 16.000 -56.200 5/25/1990 7.390 XBT
11328146 16.000 -56.200 5/25/1990 7.460 XBT
11328161 16.000 -56.200 5/25/1990 7.460 XBT
11328176 16.000 -56.200 5/25/1990 7.460 XBT
11328147 16.000 -56.200 5/25/1990 7.530 XBT
11328162 16.000 -56.200 5/25/1990 7.530 XBT
11328177 16.000 -56.200 5/25/1990 7.530 XBT
11328148 16.000 -56.200 5/25/1990 7.580 XBT
11328163 16.000 -56.200 5/25/1990 7.580 XBT
11328178 16.000 -56.200 5/25/1990 7.580 XBT
11328149 16.000 -56.200 5/25/1990 7.650 XBT
11328179 16.000 -56.200 5/25/1990 7.650 XBT
11328010 16.060 -56.260 5/25/1990 7.656 CTD
11328150 16.000 -56.200 5/25/1990 7.720 XBT
11328164 16.000 -56.200 5/25/1990 7.720 XBT
11328180 16.000 -56.200 5/25/1990 7.720 XBT
11328151 16.000 -56.200 5/25/1990 7.770 XBT
11328165 16.000 -56.200 5/25/1990 7.770 XBT
11328181 16.000 -56.200 5/25/1990 7.770 XBT
11328152 16.000 -56.200 5/25/1990 7.840 XBT
11328166 16.000 -56.200 5/25/1990 7.840 XBT
11328182 16.000 -56.200 5/25/1990 7.840 XBT
11328153 16.000 -56.200 5/25/1990 7.920 XBT
11328167 16.000 -56.200 5/25/1990 7.920 XBT
11328183 16.000 -56.200 5/25/1990 7.920 XBT
11328154 16.000 -56.200 5/25/1990 7.960 XBT
11328168 16.000 -56.200 5/25/1990 7.960 XBT
11328169 16.000 -56.200 5/25/1990 7.960 XBT
11328184 16.000 -56.200 5/25/1990 7.960 XBT
11328185 16.000 -56.200 5/25/1990 8.040 XBT
11328187 16.000 -56.200 5/25/1990 8.040 XBT
11328189 16.000 -56.200 5/25/1990 8.040 XBT
11328191 16.000 -56.200 5/25/1990 8.040 XBT
11328190 16.000 -56.200 5/25/1990 8.080 XBT
11328186 16.000 -56.200 5/25/1990 8.110 XBT
11328188 16.000 -56.200 5/25/1990 8.110 XBT
11328192 16.000 -56.200 5/25/1990 8.110 XBT
11328011 15.980 -56.200 5/25/1990 10.100 CTD
11328012 15.980 -56.210 5/25/1990 10.680 CTD
11328013 15.980 -56.210 5/25/1990 11.250 CTD
11328014 15.980 -56.210 5/25/1990 11.900 CTD
11328015 15.980 -56.230 5/25/1990 12.500 CTD
11328016 15.980 -56.230 5/25/1990 13.150 CTD
11328017 15.980 -56.230 5/25/1990 13.750 CTD